createdAt,value
2018-11-03T00:01:10.366Z,78069.03
2018-11-03T00:03:38.061Z,78069.03
2018-11-03T00:06:04.922Z,78066.03
2018-11-03T00:08:31.800Z,78066.03
2018-11-03T00:10:58.657Z,78057.02
2018-11-03T00:13:25.511Z,78048.00
2018-11-03T00:15:53.332Z,78042.00
2018-11-03T00:18:20.191Z,78035.99
2018-11-03T00:20:47.104Z,78035.99
2018-11-03T00:23:14.859Z,78038.00
2018-11-03T00:25:41.771Z,78042.00
2018-11-03T00:28:09.616Z,78042.00
2018-11-03T00:30:37.359Z,78049.01
2018-11-03T00:33:04.491Z,78045.00
2018-11-03T00:35:31.344Z,78044.00
2018-11-03T00:37:58.202Z,78040.00
2018-11-03T00:40:25.079Z,78036.99
2018-11-03T00:42:52.792Z,78034.99
2018-11-03T00:45:19.651Z,78036.99
2018-11-03T00:47:47.456Z,78041.00
2018-11-03T00:50:15.878Z,78044.00
2018-11-03T00:52:44.397Z,78043.00
2018-11-03T00:55:12.622Z,78042.00
2018-11-03T00:57:40.937Z,78044.00
2018-11-03T01:00:10.077Z,78049.01
2018-11-03T01:02:36.965Z,78049.01
2018-11-03T01:05:05.441Z,78057.02
2018-11-03T01:07:33.148Z,78056.02
2018-11-03T01:10:00.788Z,78055.02
2018-11-03T01:12:27.646Z,78059.02
2018-11-03T01:14:55.450Z,78057.02
2018-11-03T01:17:23.220Z,78051.01
2018-11-03T01:19:50.101Z,78046.00
2018-11-03T01:22:16.949Z,78053.02
2018-11-03T01:24:44.508Z,78061.02
2018-11-03T01:27:12.359Z,78060.02
2018-11-03T01:29:40.378Z,78059.02
2018-11-03T01:32:07.245Z,78058.02
2018-11-03T01:34:35.019Z,78054.02
2018-11-03T01:37:02.840Z,78050.01
2018-11-03T01:39:29.691Z,78055.02
2018-11-03T01:41:56.566Z,78059.02
2018-11-03T01:44:23.443Z,78058.02
2018-11-03T01:46:51.172Z,78053.02
2018-11-03T01:49:18.034Z,78053.02
2018-11-03T01:51:44.874Z,78055.02
2018-11-03T01:54:11.726Z,78051.01
2018-11-03T01:56:38.609Z,78053.02
2018-11-03T01:59:05.437Z,78054.02
2018-11-03T02:01:32.336Z,78057.02
2018-11-03T02:04:00.027Z,78060.02
2018-11-03T02:06:26.890Z,78066.03
2018-11-03T02:08:54.702Z,78063.02
2018-11-03T02:11:21.574Z,78061.02
2018-11-03T02:13:48.444Z,78073.03
2018-11-03T02:16:15.328Z,78080.05
2018-11-03T02:18:42.432Z,78079.05
2018-11-03T02:21:09.337Z,78076.04
2018-11-03T02:23:36.211Z,78077.05
2018-11-03T02:26:03.035Z,78075.04
2018-11-03T02:28:29.927Z,78081.05
2018-11-03T02:30:57.705Z,78084.05
2018-11-03T02:33:24.562Z,78092.06
2018-11-03T02:35:51.457Z,78099.06
2018-11-03T02:38:18.377Z,78091.06
2018-11-03T02:40:45.221Z,78084.05
2018-11-03T02:43:12.073Z,78082.05
2018-11-03T02:45:38.995Z,78079.05
2018-11-03T02:48:05.855Z,78078.05
2018-11-03T02:50:32.694Z,78084.05
2018-11-03T02:52:59.531Z,78087.05
2018-11-03T02:55:26.381Z,78086.05
2018-11-03T02:57:53.246Z,78095.06
2018-11-03T03:00:20.172Z,78105.08
2018-11-03T03:02:47.048Z,78102.07
2018-11-03T03:05:14.558Z,78108.08
2018-11-03T03:07:42.497Z,78107.08
2018-11-03T03:10:11.085Z,78107.08
2018-11-03T03:12:38.039Z,78104.07
2018-11-03T03:15:05.357Z,78100.06
2018-11-03T03:17:32.239Z,78108.08
2018-11-03T03:19:59.079Z,78114.08
2018-11-03T03:22:26.942Z,78116.09
2018-11-03T03:24:54.764Z,78115.09
2018-11-03T03:27:21.665Z,78112.08
2018-11-03T03:29:48.627Z,78116.09
2018-11-03T03:32:15.510Z,78121.09
2018-11-03T03:34:44.076Z,78118.09
2018-11-03T03:37:10.930Z,78119.09
2018-11-03T03:39:38.614Z,78132.11
2018-11-03T03:42:05.499Z,78128.09
2018-11-03T03:44:33.305Z,78125.09
2018-11-03T03:47:00.241Z,78129.10
2018-11-03T03:49:28.043Z,78129.10
2018-11-03T03:51:55.853Z,78121.09
2018-11-03T03:54:23.743Z,78131.10
2018-11-03T03:56:51.596Z,78138.11
2018-11-03T03:59:19.483Z,78137.11
2018-11-03T04:01:47.345Z,78142.12
2018-11-03T04:04:15.067Z,78142.12
2018-11-03T04:06:43.996Z,78130.10
2018-11-03T04:09:10.923Z,78130.10
2018-11-03T04:11:37.865Z,78136.11
2018-11-03T04:14:05.615Z,78137.11
2018-11-03T04:16:33.532Z,78145.12
2018-11-03T04:19:00.410Z,78141.11
2018-11-03T04:21:28.396Z,78135.11
2018-11-03T04:23:56.267Z,78136.11
2018-11-03T04:26:23.195Z,78133.11
2018-11-03T04:28:50.085Z,78137.11
2018-11-03T04:31:16.934Z,78131.10
2018-11-03T04:33:44.240Z,78136.11
2018-11-03T04:36:11.110Z,78140.11
2018-11-03T04:38:38.818Z,78140.11
2018-11-03T04:41:05.674Z,78130.10
2018-11-03T04:43:32.559Z,78130.10
2018-11-03T04:45:59.433Z,78130.10
2018-11-03T04:48:26.290Z,78138.11
2018-11-03T04:50:53.167Z,78141.11
2018-11-03T04:53:20.848Z,78146.13
2018-11-03T04:55:48.699Z,78142.12
2018-11-03T04:58:15.653Z,78146.13
2018-11-03T05:00:44.067Z,78145.12
2018-11-03T05:03:11.953Z,78138.11
2018-11-03T05:05:39.752Z,78145.12
2018-11-03T05:08:06.714Z,78148.13
2018-11-03T05:10:34.635Z,78148.13
2018-11-03T05:13:01.567Z,78155.13
2018-11-03T05:15:28.480Z,78160.14
2018-11-03T05:17:56.221Z,78156.13
2018-11-03T05:20:24.090Z,78151.13
2018-11-03T05:22:50.937Z,78147.13
2018-11-03T05:25:17.825Z,78147.13
2018-11-03T05:27:45.496Z,78148.13
2018-11-03T05:30:13.996Z,78149.13
2018-11-03T05:32:40.843Z,78152.13
2018-11-03T05:35:07.761Z,78154.13
2018-11-03T05:37:35.522Z,78150.13
2018-11-03T05:40:02.418Z,78148.13
2018-11-03T05:42:30.183Z,78149.13
2018-11-03T05:44:58.051Z,78151.13
2018-11-03T05:47:25.823Z,78158.13
2018-11-03T05:49:53.590Z,78159.14
2018-11-03T05:52:20.444Z,78160.14
2018-11-03T05:54:47.353Z,78158.13
2018-11-03T05:57:15.379Z,78160.14
2018-11-03T05:59:43.861Z,78160.14
2018-11-03T06:02:10.775Z,78164.14
2018-11-03T06:04:38.599Z,78162.14
2018-11-03T06:07:05.521Z,78167.15
2018-11-03T06:09:33.350Z,78178.16
2018-11-03T06:12:01.168Z,78177.16
2018-11-03T06:14:29.810Z,78174.16
2018-11-03T06:16:57.515Z,78177.16
2018-11-03T06:19:24.376Z,78175.16
2018-11-03T06:21:52.218Z,78179.16
2018-11-03T06:24:19.081Z,78184.17
2018-11-03T06:26:47.074Z,78195.18
2018-11-03T06:29:14.643Z,78196.18
2018-11-03T06:31:42.421Z,78198.19
2018-11-03T06:34:09.463Z,78194.18
2018-11-03T06:36:36.328Z,78194.18
2018-11-03T06:39:04.428Z,78198.19
2018-11-03T06:41:32.148Z,78194.18
2018-11-03T06:43:59.890Z,78200.19
2018-11-03T06:46:26.808Z,78204.19
2018-11-03T06:48:58.215Z,78211.20
2018-11-03T06:51:25.964Z,78206.19
2018-11-03T06:53:53.816Z,78206.19
2018-11-03T06:56:20.692Z,78200.19
2018-11-03T06:58:48.467Z,78204.19
2018-11-03T07:01:15.377Z,78212.20
2018-11-03T07:03:42.262Z,78208.20
2018-11-03T07:06:10.282Z,78207.20
2018-11-03T07:08:38.138Z,78206.19
2018-11-03T07:11:05.011Z,78210.20
2018-11-03T07:13:31.893Z,78206.19
2018-11-03T07:15:58.752Z,78210.20
2018-11-03T07:18:25.672Z,78211.20
2018-11-03T07:20:53.413Z,78216.20
2018-11-03T07:23:20.287Z,78216.20
2018-11-03T07:25:47.149Z,78224.22
2018-11-03T07:28:14.685Z,78225.22
2018-11-03T07:30:41.631Z,78223.21
2018-11-03T07:33:08.474Z,78218.20
2018-11-03T07:35:35.320Z,78214.20
2018-11-03T07:38:02.277Z,78215.20
2018-11-03T07:40:29.166Z,78208.20
2018-11-03T07:42:56.023Z,78202.19
2018-11-03T07:45:23.008Z,78208.20
2018-11-03T07:47:49.913Z,78213.20
2018-11-03T07:50:16.744Z,78215.20
2018-11-03T07:52:44.209Z,78212.20
2018-11-03T07:55:12.355Z,78210.20
2018-11-03T07:57:39.424Z,78210.20
2018-11-03T08:00:07.950Z,78207.20
2018-11-03T08:02:34.824Z,78210.20
2018-11-03T08:05:01.708Z,78218.20
2018-11-03T08:07:28.555Z,78220.20
2018-11-03T08:09:55.445Z,78217.20
2018-11-03T08:12:22.320Z,78212.20
2018-11-03T08:14:49.210Z,78206.19
2018-11-03T08:17:16.074Z,78208.20
2018-11-03T08:19:43.626Z,78213.20
2018-11-03T08:22:10.513Z,78217.20
2018-11-03T08:24:37.474Z,78216.20
2018-11-03T08:27:04.333Z,78213.20
2018-11-03T08:29:32.218Z,78216.20
2018-11-03T08:31:59.155Z,78220.20
2018-11-03T08:34:26.016Z,78218.20
2018-11-03T08:36:52.923Z,78225.22
2018-11-03T08:39:19.824Z,78227.22
2018-11-03T08:41:46.653Z,78219.20
2018-11-03T08:44:15.195Z,78219.20
2018-11-03T08:46:43.806Z,78218.20
2018-11-03T08:49:10.707Z,78218.20
2018-11-03T08:51:37.601Z,78219.20
2018-11-03T08:54:04.508Z,78225.22
2018-11-03T08:56:31.384Z,78226.22
2018-11-03T08:58:59.017Z,78222.21
2018-11-03T09:01:25.879Z,78211.20
2018-11-03T09:03:53.615Z,78210.20
2018-11-03T09:06:20.492Z,78206.19
2018-11-03T09:08:47.339Z,78206.19
2018-11-03T09:11:15.097Z,78208.20
2018-11-03T09:13:41.966Z,78204.19
2018-11-03T09:16:09.753Z,78209.20
2018-11-03T09:18:36.659Z,78209.20
2018-11-03T09:21:03.567Z,78208.20
2018-11-03T09:23:31.280Z,78196.18
2018-11-03T09:25:58.126Z,78207.20
2018-11-03T09:28:25.967Z,78208.20
2018-11-03T09:30:52.834Z,78219.20
2018-11-03T09:33:19.695Z,78213.20
2018-11-03T09:35:46.554Z,78219.20
2018-11-03T09:38:14.638Z,78219.20
2018-11-03T09:40:41.602Z,78220.20
2018-11-03T09:43:08.511Z,78221.21
2018-11-03T09:45:35.375Z,78222.21
2018-11-03T09:48:02.165Z,78216.20
2018-11-03T09:50:29.050Z,78216.20
2018-11-03T09:52:56.105Z,78211.20
2018-11-03T09:55:22.942Z,78212.20
2018-11-03T09:57:50.217Z,78213.20
2018-11-03T10:00:18.421Z,78213.20
2018-11-03T10:02:45.339Z,78225.22
2018-11-03T10:05:14.627Z,78216.20
2018-11-03T10:07:42.515Z,78214.20
2018-11-03T10:10:12.566Z,78212.20
2018-11-03T10:12:39.472Z,78210.20
2018-11-03T10:15:06.402Z,78211.20
2018-11-03T10:17:33.288Z,78216.20
2018-11-03T10:20:01.070Z,78220.20
2018-11-03T10:22:38.328Z,78223.21
2018-11-03T10:25:09.381Z,78217.20
2018-11-03T10:27:37.202Z,78215.20
2018-11-03T10:30:04.412Z,78208.20
2018-11-03T10:32:31.312Z,78206.19
2018-11-03T10:34:58.165Z,78211.20
2018-11-03T10:37:25.024Z,78212.20
2018-11-03T10:39:51.846Z,78215.20
2018-11-03T10:42:18.838Z,78203.19
2018-11-03T10:44:45.671Z,78208.20
2018-11-03T10:47:13.904Z,78202.19
2018-11-03T10:49:43.868Z,78198.19
2018-11-03T10:52:12.453Z,78212.20
2018-11-03T10:54:40.327Z,78221.21
2018-11-03T10:57:08.546Z,78232.22
2018-11-03T10:59:36.227Z,78215.20
2018-11-03T11:02:09.469Z,78210.20
2018-11-03T11:04:41.892Z,78201.19
2018-11-03T11:07:14.515Z,78203.19
2018-11-03T11:09:47.782Z,78197.19
2018-11-03T11:12:21.479Z,78196.18
2018-11-03T11:14:48.349Z,78188.17
2018-11-03T11:17:16.058Z,78188.17
2018-11-03T11:19:44.499Z,78180.16
2018-11-03T11:22:11.349Z,78188.17
2018-11-03T11:24:39.261Z,78189.17
2018-11-03T11:27:07.160Z,78190.17
2018-11-03T11:29:34.962Z,78179.16
2018-11-03T11:32:02.837Z,78176.16
2018-11-03T11:34:30.669Z,78181.16
2018-11-03T11:36:57.535Z,78176.16
2018-11-03T11:39:25.409Z,78171.16
2018-11-03T11:41:52.337Z,78178.16
2018-11-03T11:44:19.311Z,78176.16
2018-11-03T11:46:46.191Z,78173.16
2018-11-03T11:49:14.148Z,78168.15
2018-11-03T11:51:41.033Z,78168.15
2018-11-03T11:54:07.923Z,78164.14
2018-11-03T11:56:35.571Z,78170.16
2018-11-03T11:59:02.477Z,78169.15
2018-11-03T12:01:29.319Z,78171.16
2018-11-03T12:03:56.227Z,78164.14
2018-11-03T12:06:23.097Z,78160.14
2018-11-03T12:08:49.964Z,78161.14
2018-11-03T12:11:17.447Z,78164.14
2018-11-03T12:13:46.018Z,78164.14
2018-11-03T12:16:13.650Z,78165.14
2018-11-03T12:18:40.654Z,78161.14
2018-11-03T12:21:07.510Z,78161.14
2018-11-03T12:23:35.329Z,78158.13
2018-11-03T12:26:03.171Z,78156.13
2018-11-03T12:28:30.862Z,78151.13
2018-11-03T12:30:57.727Z,78149.13
2018-11-03T12:33:25.467Z,78145.12
2018-11-03T12:35:52.534Z,78150.13
2018-11-03T12:38:19.398Z,78152.13
2018-11-03T12:40:46.307Z,78151.13
2018-11-03T12:43:20.778Z,78154.13
2018-11-03T12:45:48.584Z,78156.13
2018-11-03T12:48:15.442Z,78151.13
2018-11-03T12:50:43.980Z,78155.13
2018-11-03T12:53:11.722Z,78156.13
2018-11-03T12:55:39.367Z,78151.13
2018-11-03T12:58:06.264Z,78154.13
2018-11-03T13:00:34.130Z,78148.13
2018-11-03T13:03:01.008Z,78146.13
2018-11-03T13:05:28.769Z,78144.12
2018-11-03T13:07:55.655Z,78142.12
2018-11-03T13:10:22.515Z,78144.12
2018-11-03T13:12:50.306Z,78138.11
2018-11-03T13:15:17.204Z,78131.10
2018-11-03T13:17:44.410Z,78131.10
2018-11-03T13:20:12.254Z,78160.14
2018-11-03T13:22:39.238Z,78153.13
2018-11-03T13:25:06.446Z,78153.13
2018-11-03T13:27:33.331Z,78140.11
2018-11-03T13:30:00.158Z,78140.11
2018-11-03T13:32:26.994Z,78144.12
2018-11-03T13:34:53.809Z,78138.11
2018-11-03T13:37:20.657Z,78141.11
2018-11-03T13:39:47.503Z,78137.11
2018-11-03T13:42:15.073Z,78137.11
2018-11-03T13:44:41.902Z,78137.11
2018-11-03T13:47:08.794Z,78132.11
2018-11-03T13:49:35.718Z,78136.11
2018-11-03T13:52:02.573Z,78134.11
2018-11-03T13:54:29.442Z,78136.11
2018-11-03T13:56:56.363Z,78134.11
2018-11-03T13:59:23.206Z,78132.11
2018-11-03T14:01:50.045Z,78138.11
2018-11-03T14:04:17.000Z,78142.12
2018-11-03T14:06:44.417Z,78142.12
2018-11-03T14:09:12.146Z,78139.11
2018-11-03T14:11:39.320Z,78143.12
2018-11-03T14:14:06.198Z,78143.12
2018-11-03T14:16:33.520Z,78143.12
2018-11-03T14:19:00.442Z,78141.11
2018-11-03T14:21:27.288Z,78140.11
2018-11-03T14:23:54.300Z,78145.12
2018-11-03T14:26:21.152Z,78143.12
2018-11-03T14:28:48.069Z,78136.11
2018-11-03T14:31:14.974Z,78136.11
2018-11-03T14:33:43.836Z,78135.11
2018-11-03T14:36:10.731Z,78131.10
2018-11-03T14:38:38.466Z,78133.11
2018-11-03T14:41:05.335Z,78132.11
2018-11-03T14:43:32.202Z,78129.10
2018-11-03T14:45:59.069Z,78130.10
2018-11-03T14:48:26.944Z,78133.11
2018-11-03T14:50:54.117Z,78136.11
2018-11-03T14:53:21.028Z,78133.11
2018-11-03T14:55:47.873Z,78134.11
2018-11-03T14:58:15.523Z,78128.09
2018-11-03T15:00:42.744Z,78134.11
2018-11-03T15:03:10.577Z,78128.09
2018-11-03T15:05:37.463Z,78124.09
2018-11-03T15:08:04.327Z,78124.09
2018-11-03T15:10:31.250Z,78128.09
2018-11-03T15:12:58.061Z,78129.10
2018-11-03T15:15:24.909Z,78127.09
2018-11-03T15:17:52.644Z,78128.09
2018-11-03T15:20:20.444Z,78124.09
2018-11-03T15:22:48.253Z,78123.09
2018-11-03T15:25:15.069Z,78122.09
2018-11-03T15:27:42.304Z,78127.09
2018-11-03T15:30:10.023Z,78128.09
2018-11-03T15:32:37.261Z,78132.11
2018-11-03T15:35:04.686Z,78133.11
2018-11-03T15:37:32.336Z,78134.11
2018-11-03T15:39:59.165Z,78130.10
2018-11-03T15:42:26.791Z,78132.11
2018-11-03T15:44:53.608Z,78137.11
2018-11-03T15:47:20.478Z,78134.11
2018-11-03T15:49:48.217Z,78137.11
2018-11-03T15:52:15.853Z,78128.09
2018-11-03T15:54:44.055Z,78130.10
2018-11-03T15:57:10.894Z,78128.09
2018-11-03T15:59:37.734Z,78130.10
2018-11-03T16:02:04.651Z,78129.10
2018-11-03T16:04:32.430Z,78127.09
2018-11-03T16:06:59.279Z,78124.09
2018-11-03T16:09:27.015Z,78126.09
2018-11-03T16:11:53.994Z,78128.09
2018-11-03T16:14:20.872Z,78127.09
2018-11-03T16:16:48.602Z,78128.09
2018-11-03T16:19:16.375Z,78132.11
2018-11-03T16:21:44.709Z,78124.09
2018-11-03T16:24:12.520Z,78124.09
2018-11-03T16:26:39.367Z,78130.10
2018-11-03T16:29:06.228Z,78129.10
2018-11-03T16:31:33.091Z,78128.09
2018-11-03T16:33:59.965Z,78122.09
2018-11-03T16:36:26.881Z,78122.09
2018-11-03T16:38:53.736Z,78114.08
2018-11-03T16:41:21.440Z,78118.09
2018-11-03T16:43:48.283Z,78126.09
2018-11-03T16:46:15.129Z,78129.10
2018-11-03T16:48:42.086Z,78136.11
2018-11-03T16:51:09.562Z,78134.11
2018-11-03T16:53:36.422Z,78135.11
2018-11-03T16:56:03.388Z,78130.10
2018-11-03T16:58:31.373Z,78137.11
2018-11-03T17:00:58.194Z,78137.11
2018-11-03T17:03:25.194Z,78143.12
2018-11-03T17:05:52.966Z,78145.12
2018-11-03T17:08:19.889Z,78145.12
2018-11-03T17:10:46.821Z,78141.11
2018-11-03T17:13:14.215Z,78190.17
2018-11-03T17:15:41.047Z,78225.22
2018-11-03T17:18:08.642Z,78250.25
2018-11-03T17:20:35.590Z,78246.23
2018-11-03T17:23:03.408Z,78265.27
2018-11-03T17:25:30.321Z,78263.27
2018-11-03T17:27:57.160Z,78224.22
2018-11-03T17:30:24.041Z,78197.19
2018-11-03T17:32:51.021Z,78180.16
2018-11-03T17:35:18.013Z,78174.16
2018-11-03T17:37:45.459Z,78179.16
2018-11-03T17:40:12.589Z,78174.16
2018-11-03T17:42:39.502Z,78182.16
2018-11-03T17:45:06.870Z,78188.17
2018-11-03T17:47:33.711Z,78184.17
2018-11-03T17:50:01.536Z,78163.14
2018-11-03T17:52:28.383Z,78149.13
2018-11-03T17:54:56.081Z,78147.13
2018-11-03T17:57:22.939Z,78148.13
2018-11-03T17:59:49.774Z,78144.12
2018-11-03T18:02:17.666Z,78150.13
2018-11-03T18:04:45.515Z,78145.12
2018-11-03T18:07:13.907Z,78136.11
2018-11-03T18:09:40.804Z,78138.11
2018-11-03T18:12:07.658Z,78194.18
2018-11-03T18:14:34.527Z,78168.15
2018-11-03T18:17:01.596Z,78152.13
2018-11-03T18:19:28.493Z,78144.12
2018-11-03T18:21:55.373Z,78134.11
2018-11-03T18:24:22.356Z,78131.10
2018-11-03T18:26:49.216Z,78125.09
2018-11-03T18:29:16.139Z,78125.09
2018-11-03T18:31:43.575Z,78131.10
2018-11-03T18:34:10.398Z,78170.16
2018-11-03T18:36:37.329Z,78194.18
2018-11-03T18:39:05.580Z,78190.17
2018-11-03T18:41:32.445Z,78227.22
2018-11-03T18:43:59.313Z,78253.25
2018-11-03T18:46:26.228Z,78288.30
2018-11-03T18:48:53.136Z,78280.28
2018-11-03T18:51:20.950Z,78244.23
2018-11-03T18:53:47.788Z,78212.20
2018-11-03T18:56:15.772Z,78187.17
2018-11-03T18:58:42.664Z,78166.14
2018-11-03T19:01:09.609Z,78162.14
2018-11-03T19:03:36.535Z,78157.13
2018-11-03T19:06:03.384Z,78153.13
2018-11-03T19:08:30.285Z,78150.13
2018-11-03T19:10:57.127Z,78151.13
2018-11-03T19:13:23.964Z,78154.13
2018-11-03T19:15:50.746Z,78150.13
2018-11-03T19:18:17.748Z,78146.13
2018-11-03T19:20:45.589Z,78145.12
2018-11-03T19:23:14.627Z,78137.11
2018-11-03T19:25:42.348Z,78141.11
2018-11-03T19:28:10.092Z,78148.13
2018-11-03T19:30:37.088Z,78144.12
2018-11-03T19:33:04.397Z,78146.13
2018-11-03T19:35:31.227Z,78148.13
2018-11-03T19:37:59.004Z,78142.12
2018-11-03T19:40:25.918Z,78136.11
2018-11-03T19:42:52.791Z,78127.09
2018-11-03T19:45:19.681Z,78124.09
2018-11-03T19:47:47.454Z,78121.09
2018-11-03T19:50:15.230Z,78124.09
2018-11-03T19:52:42.058Z,78125.09
2018-11-03T19:55:08.890Z,78125.09
2018-11-03T19:57:35.742Z,78123.09
2018-11-03T20:00:03.808Z,78126.09
2018-11-03T20:02:30.712Z,78126.09
2018-11-03T20:04:57.557Z,78124.09
2018-11-03T20:07:24.562Z,78126.09
2018-11-03T20:09:51.435Z,78128.09
2018-11-03T20:12:18.292Z,78125.09
2018-11-03T20:14:45.142Z,78120.09
2018-11-03T20:17:12.059Z,78125.09
2018-11-03T20:19:39.164Z,78124.09
2018-11-03T20:22:06.148Z,78126.09
2018-11-03T20:24:33.015Z,78126.09
2018-11-03T20:27:00.901Z,78130.10
2018-11-03T20:29:27.738Z,78122.09
2018-11-03T20:31:54.602Z,78123.09
2018-11-03T20:34:21.446Z,78122.09
2018-11-03T20:36:48.291Z,78116.09
2018-11-03T20:39:15.117Z,78116.09
2018-11-03T20:41:42.057Z,78113.08
2018-11-03T20:44:08.932Z,78115.09
2018-11-03T20:46:37.462Z,78112.08
2018-11-03T20:49:04.376Z,78107.08
2018-11-03T20:51:31.277Z,78117.09
2018-11-03T20:53:58.193Z,78113.08
2018-11-03T20:56:25.053Z,78109.08
2018-11-03T20:58:51.946Z,78108.08
2018-11-03T21:01:18.801Z,78105.08
2018-11-03T21:03:45.616Z,78103.07
2018-11-03T21:06:12.467Z,78099.06
2018-11-03T21:08:40.293Z,78104.07
2018-11-03T21:11:07.175Z,78098.06
2018-11-03T21:13:34.063Z,78098.06
2018-11-03T21:16:00.912Z,78098.06
2018-11-03T21:18:27.841Z,78096.06
2018-11-03T21:20:55.132Z,78087.05
2018-11-03T21:23:22.082Z,78089.05
2018-11-03T21:25:48.915Z,78089.05
2018-11-03T21:28:15.760Z,78088.05
2018-11-03T21:30:44.260Z,78090.05
2018-11-03T21:33:11.333Z,78096.06
2018-11-03T21:35:38.057Z,78099.06
2018-11-03T21:38:05.010Z,78093.06
2018-11-03T21:40:31.909Z,78093.06
2018-11-03T21:42:59.774Z,78083.05
2018-11-03T21:45:26.665Z,78082.05
2018-11-03T21:47:53.501Z,78072.03
2018-11-03T21:50:20.387Z,78069.03
2018-11-03T21:52:48.108Z,78064.02
2018-11-03T21:55:14.950Z,78060.02
2018-11-03T21:57:42.601Z,78055.02
2018-11-03T22:00:10.353Z,78052.02
2018-11-03T22:02:37.213Z,78051.01
2018-11-03T22:05:04.853Z,78045.00
2018-11-03T22:07:31.674Z,78047.00
2018-11-03T22:09:58.504Z,78042.00
2018-11-03T22:12:25.390Z,78041.00
2018-11-03T22:14:52.227Z,78035.99
2018-11-03T22:17:19.121Z,78035.99
2018-11-03T22:19:45.950Z,78036.99
2018-11-03T22:22:12.832Z,78029.98
2018-11-03T22:24:40.569Z,78025.98
2018-11-03T22:27:07.419Z,78031.98
2018-11-03T22:29:35.148Z,78031.98
2018-11-03T22:32:01.990Z,78026.98
2018-11-03T22:34:29.857Z,78023.98
2018-11-03T22:36:57.506Z,78027.98
2018-11-03T22:39:29.287Z,78020.98
2018-11-03T22:41:56.940Z,78017.97
2018-11-03T22:44:24.807Z,78017.97
2018-11-03T22:46:52.416Z,78023.98
2018-11-03T22:49:20.078Z,78021.98
2018-11-03T22:51:47.871Z,78015.97
2018-11-03T22:54:16.949Z,78011.97
2018-11-03T22:56:45.846Z,78007.96
2018-11-03T22:59:14.071Z,78002.95
2018-11-03T23:01:41.722Z,77995.95
2018-11-03T23:04:08.567Z,77993.95
2018-11-03T23:06:36.260Z,77989.94
2018-11-03T23:09:05.199Z,77994.95
2018-11-03T23:11:32.948Z,77993.95
2018-11-03T23:14:00.620Z,77984.94
2018-11-03T23:16:28.303Z,77987.94
2018-11-03T23:18:56.055Z,77984.94
2018-11-03T23:21:22.898Z,77987.94
2018-11-03T23:23:50.623Z,77977.93
2018-11-03T23:26:18.581Z,77975.92
2018-11-03T23:28:46.424Z,77981.94
2018-11-03T23:31:14.042Z,77979.93
2018-11-03T23:33:40.895Z,77979.93
2018-11-03T23:36:07.740Z,77975.92
2018-11-03T23:38:34.582Z,77970.92
2018-11-03T23:41:02.393Z,77962.91
2018-11-03T23:43:29.266Z,77960.91
2018-11-03T23:45:56.103Z,77961.91
2018-11-03T23:48:22.948Z,77959.91
2018-11-03T23:50:50.800Z,77961.91
2018-11-03T23:53:17.658Z,77956.91
2018-11-03T23:55:45.751Z,77949.89
2018-11-03T23:58:14.460Z,77951.89
